createdAt,value
2018-08-12T00:00:25.960Z,29.28
2018-08-12T00:01:25.917Z,29.28
2018-08-12T00:02:25.874Z,29.33
2018-08-12T00:03:25.832Z,29.28
2018-08-12T00:04:25.790Z,29.27
2018-08-12T00:05:25.748Z,29.39
2018-08-12T00:06:25.705Z,29.28
2018-08-12T00:07:25.670Z,29.28
2018-08-12T00:08:25.621Z,29.28
2018-08-12T00:09:25.595Z,29.36
2018-08-12T00:10:25.536Z,29.34
2018-08-12T00:11:25.496Z,29.37
2018-08-12T00:12:25.451Z,29.37
2018-08-12T00:13:25.409Z,29.30
2018-08-12T00:14:25.366Z,29.39
2018-08-12T00:15:25.324Z,29.36
2018-08-12T00:16:25.282Z,29.37
2018-08-12T00:17:25.243Z,29.33
2018-08-12T00:18:25.198Z,29.31
2018-08-12T00:19:25.155Z,29.30
2018-08-12T00:20:25.115Z,29.34
2018-08-12T00:21:25.071Z,29.31
2018-08-12T00:22:25.030Z,29.33
2018-08-12T00:23:24.986Z,29.28
2018-08-12T00:24:24.943Z,29.34
2018-08-12T00:25:24.902Z,29.31
2018-08-12T00:26:24.859Z,29.28
2018-08-12T00:27:24.817Z,29.31
2018-08-12T00:28:24.775Z,29.31
2018-08-12T00:29:24.733Z,29.31
2018-08-12T00:30:24.689Z,29.28
2018-08-12T00:31:24.647Z,29.33
2018-08-12T00:32:24.606Z,29.31
2018-08-12T00:33:24.563Z,29.30
2018-08-12T00:34:24.520Z,29.28
2018-08-12T00:35:24.484Z,29.30
2018-08-12T00:36:24.436Z,29.36
2018-08-12T00:37:24.394Z,29.28
2018-08-12T00:38:24.358Z,29.24
2018-08-12T00:39:24.308Z,29.31
2018-08-12T00:40:24.267Z,29.26
2018-08-12T00:41:24.225Z,29.27
2018-08-12T00:42:24.182Z,29.26
2018-08-12T00:43:24.140Z,29.31
2018-08-12T00:44:24.098Z,29.23
2018-08-12T00:45:24.064Z,29.30
2018-08-12T00:46:24.012Z,29.27
2018-08-12T00:47:23.971Z,29.26
2018-08-12T00:48:23.928Z,29.28
2018-08-12T00:49:23.886Z,29.28
2018-08-12T00:50:23.843Z,29.23
2018-08-12T00:51:23.801Z,29.24
2018-08-12T00:52:23.792Z,29.24
2018-08-12T00:53:23.717Z,29.28
2018-08-12T00:54:23.676Z,29.18
2018-08-12T00:55:23.633Z,29.24
2018-08-12T00:56:23.593Z,29.23
2018-08-12T00:57:23.548Z,29.26
2018-08-12T00:58:23.504Z,29.24
2018-08-12T00:59:23.467Z,29.21
2018-08-12T01:00:23.419Z,29.19
2018-08-12T01:01:23.378Z,29.21
2018-08-12T01:02:23.335Z,29.24
2018-08-12T01:03:23.293Z,29.18
2018-08-12T01:04:23.251Z,29.14
2018-08-12T01:05:23.209Z,29.16
2018-08-12T01:06:23.166Z,29.19
2018-08-12T01:07:23.124Z,29.15
2018-08-12T01:08:23.083Z,29.18
2018-08-12T01:09:23.042Z,29.16
2018-08-12T01:10:22.996Z,29.23
2018-08-12T01:11:22.955Z,29.15
2018-08-12T01:12:22.912Z,29.18
2018-08-12T01:13:22.870Z,29.15
2018-08-12T01:14:22.827Z,29.19
2018-08-12T01:15:22.785Z,29.23
2018-08-12T01:16:22.743Z,29.19
2018-08-12T01:17:22.700Z,29.11
2018-08-12T01:18:22.660Z,29.19
2018-08-12T01:19:22.615Z,29.18
2018-08-12T01:20:22.573Z,29.15
2018-08-12T01:21:22.537Z,29.19
2018-08-12T01:22:22.487Z,29.15
2018-08-12T01:23:22.446Z,29.15
2018-08-12T01:24:22.404Z,29.12
2018-08-12T01:25:22.361Z,29.16
2018-08-12T01:26:22.318Z,29.19
2018-08-12T01:27:22.276Z,29.16
2018-08-12T01:28:22.234Z,29.12
2018-08-12T01:29:22.193Z,29.21
2018-08-12T01:30:22.150Z,29.11
2018-08-12T01:31:22.107Z,29.21
2018-08-12T01:32:22.069Z,29.14
2018-08-12T01:33:22.022Z,29.16
2018-08-12T01:34:21.979Z,29.18
2018-08-12T01:35:21.936Z,29.14
2018-08-12T01:36:21.895Z,29.12
2018-08-12T01:37:21.852Z,29.14
2018-08-12T01:38:21.811Z,29.18
2018-08-12T01:39:21.767Z,29.16
2018-08-12T01:40:21.725Z,29.18
2018-08-12T01:41:21.683Z,29.19
2018-08-12T01:42:21.639Z,29.18
2018-08-12T01:43:21.597Z,29.24
2018-08-12T01:44:21.555Z,29.16
2018-08-12T01:45:21.513Z,29.16
2018-08-12T01:46:21.470Z,29.16
2018-08-12T01:47:21.427Z,29.19
2018-08-12T01:48:21.385Z,29.19
2018-08-12T01:49:21.351Z,29.16
2018-08-12T01:50:21.350Z,29.18
2018-08-12T01:51:21.258Z,29.19
2018-08-12T01:52:21.216Z,29.16
2018-08-12T01:53:21.176Z,29.16
2018-08-12T01:54:21.130Z,29.18
2018-08-12T01:55:21.090Z,29.06
2018-08-12T01:56:21.046Z,29.14
2018-08-12T01:57:21.004Z,29.09
2018-08-12T01:58:20.962Z,29.19
2018-08-12T01:59:20.918Z,29.21
2018-08-12T02:00:20.876Z,29.12
2018-08-12T02:01:20.834Z,29.18
2018-08-12T02:02:20.791Z,29.21
2018-08-12T02:03:20.798Z,29.09
2018-08-12T02:04:20.706Z,29.16
2018-08-12T02:05:20.671Z,29.16
2018-08-12T02:06:20.621Z,29.09
2018-08-12T02:07:20.579Z,29.16
2018-08-12T02:08:20.544Z,29.04
2018-08-12T02:09:20.494Z,29.11
2018-08-12T02:10:20.452Z,29.18
2018-08-12T02:11:20.409Z,29.16
2018-08-12T02:12:20.367Z,29.05
2018-08-12T02:13:20.325Z,29.09
2018-08-12T02:14:20.281Z,29.08
2018-08-12T02:15:20.240Z,29.08
2018-08-12T02:16:20.197Z,29.06
2018-08-12T02:17:20.155Z,29.08
2018-08-12T02:18:20.112Z,29.11
2018-08-12T02:19:20.070Z,29.06
2018-08-12T02:20:20.028Z,29.11
2018-08-12T02:21:19.986Z,29.05
2018-08-12T02:22:19.942Z,29.11
2018-08-12T02:23:19.904Z,29.04
2018-08-12T02:24:19.857Z,29.08
2018-08-12T02:25:19.821Z,29.05
2018-08-12T02:26:19.772Z,29.08
2018-08-12T02:27:19.732Z,29.06
2018-08-12T02:28:19.687Z,29.06
2018-08-12T02:29:19.652Z,29.09
2018-08-12T02:30:19.602Z,29.05
2018-08-12T02:31:19.561Z,29.11
2018-08-12T02:32:19.517Z,29.04
2018-08-12T02:33:19.478Z,29.02
2018-08-12T02:34:19.432Z,29.08
2018-08-12T02:35:19.390Z,29.05
2018-08-12T02:36:19.348Z,29.09
2018-08-12T02:37:19.305Z,29.05
2018-08-12T02:38:19.262Z,29.05
2018-08-12T02:39:19.220Z,29.05
2018-08-12T02:40:19.181Z,29.04
2018-08-12T02:41:19.136Z,29.11
2018-08-12T02:42:19.092Z,29.00
2018-08-12T02:43:19.049Z,29.06
2018-08-12T02:44:19.007Z,29.06
2018-08-12T02:45:18.998Z,29.06
2018-08-12T02:46:18.926Z,28.98
2018-08-12T02:47:18.879Z,29.02
2018-08-12T02:48:18.837Z,28.95
2018-08-12T02:49:18.795Z,28.96
2018-08-12T02:50:18.752Z,28.96
2018-08-12T02:51:18.709Z,28.96
2018-08-12T02:52:18.667Z,29.04
2018-08-12T02:53:18.624Z,29.04
2018-08-12T02:54:18.584Z,28.96
2018-08-12T02:55:18.544Z,28.96
2018-08-12T02:56:18.497Z,29.00
2018-08-12T02:57:18.455Z,28.96
2018-08-12T02:58:18.411Z,28.93
2018-08-12T02:59:18.369Z,28.96
2018-08-12T03:00:18.330Z,28.90
2018-08-12T03:01:18.285Z,28.93
2018-08-12T03:02:18.241Z,28.96
2018-08-12T03:03:18.199Z,28.90
2018-08-12T03:04:18.157Z,28.98
2018-08-12T03:05:18.114Z,28.93
2018-08-12T03:06:18.071Z,28.93
2018-08-12T03:07:18.028Z,28.96
2018-08-12T03:08:17.986Z,28.96
2018-08-12T03:09:17.944Z,28.93
2018-08-12T03:10:17.900Z,29.00
2018-08-12T03:11:17.858Z,28.93
2018-08-12T03:12:17.820Z,28.92
2018-08-12T03:13:17.781Z,28.98
2018-08-12T03:14:17.732Z,29.02
2018-08-12T03:15:17.688Z,28.96
2018-08-12T03:16:17.645Z,28.96
2018-08-12T03:17:17.607Z,28.98
2018-08-12T03:18:17.560Z,28.95
2018-08-12T03:19:17.517Z,28.95
2018-08-12T03:20:17.475Z,29.00
2018-08-12T03:21:17.433Z,28.96
2018-08-12T03:22:17.469Z,28.98
2018-08-12T03:23:17.347Z,28.95
2018-08-12T03:24:17.308Z,28.96
2018-08-12T03:25:17.265Z,29.00
2018-08-12T03:26:17.219Z,28.89
2018-08-12T03:27:17.177Z,28.98
2018-08-12T03:28:17.135Z,28.92
2018-08-12T03:29:17.092Z,28.96
2018-08-12T03:30:17.080Z,28.95
2018-08-12T03:31:17.009Z,28.90
2018-08-12T03:32:16.967Z,28.92
2018-08-12T03:33:16.926Z,28.92
2018-08-12T03:34:16.878Z,28.95
2018-08-12T03:35:16.839Z,28.98
2018-08-12T03:36:16.793Z,28.96
2018-08-12T03:37:16.755Z,28.93
2018-08-12T03:38:16.708Z,28.90
2018-08-12T03:39:16.673Z,28.92
2018-08-12T03:40:16.623Z,28.95
2018-08-12T03:41:16.581Z,28.95
2018-08-12T03:42:16.537Z,28.95
2018-08-12T03:43:16.495Z,28.95
2018-08-12T03:44:16.454Z,28.95
2018-08-12T03:45:16.412Z,28.95
2018-08-12T03:46:16.367Z,28.98
2018-08-12T03:47:16.326Z,28.92
2018-08-12T03:48:16.283Z,28.95
2018-08-12T03:49:16.240Z,28.93
2018-08-12T03:50:16.197Z,28.93
2018-08-12T03:51:16.154Z,28.90
2018-08-12T03:52:16.112Z,28.86
2018-08-12T03:53:16.075Z,28.89
2018-08-12T03:54:16.026Z,28.92
2018-08-12T03:55:15.984Z,28.96
2018-08-12T03:56:15.942Z,28.93
2018-08-12T03:57:15.900Z,28.96
2018-08-12T03:58:15.856Z,28.92
2018-08-12T03:59:15.814Z,28.95
2018-08-12T04:00:15.771Z,28.93
2018-08-12T04:01:15.729Z,28.95
2018-08-12T04:02:15.723Z,28.96
2018-08-12T04:03:15.643Z,28.92
2018-08-12T04:04:15.601Z,28.92
2018-08-12T04:05:15.558Z,28.89
2018-08-12T04:06:15.515Z,28.92
2018-08-12T04:07:15.476Z,28.95
2018-08-12T04:08:15.430Z,28.89
2018-08-12T04:09:15.388Z,28.92
2018-08-12T04:10:15.345Z,28.96
2018-08-12T04:11:15.302Z,28.96
2018-08-12T04:12:15.261Z,28.93
2018-08-12T04:13:15.217Z,28.89
2018-08-12T04:14:15.174Z,28.95
2018-08-12T04:15:15.133Z,28.95
2018-08-12T04:16:15.092Z,28.93
2018-08-12T04:17:15.047Z,28.98
2018-08-12T04:18:15.009Z,28.95
2018-08-12T04:19:14.960Z,28.96
2018-08-12T04:20:14.918Z,28.98
2018-08-12T04:21:14.876Z,29.02
2018-08-12T04:22:14.832Z,28.95
2018-08-12T04:23:14.790Z,29.00
2018-08-12T04:24:14.747Z,28.96
2018-08-12T04:25:14.705Z,29.00
2018-08-12T04:26:14.663Z,28.96
2018-08-12T04:27:14.619Z,28.90
2018-08-12T04:28:14.576Z,29.00
2018-08-12T04:29:14.533Z,28.98
2018-08-12T04:30:14.491Z,28.95
2018-08-12T04:31:14.448Z,29.00
2018-08-12T04:32:14.406Z,28.98
2018-08-12T04:33:14.364Z,29.00
2018-08-12T04:34:14.320Z,28.96
2018-08-12T04:35:14.277Z,29.00
2018-08-12T04:36:14.241Z,29.00
2018-08-12T04:37:14.192Z,29.02
2018-08-12T04:38:14.151Z,29.00
2018-08-12T04:39:14.106Z,28.93
2018-08-12T04:40:14.064Z,29.00
2018-08-12T04:41:14.022Z,28.93
2018-08-12T04:42:13.978Z,28.92
2018-08-12T04:43:13.935Z,28.96
2018-08-12T04:44:13.893Z,29.00
2018-08-12T04:45:13.854Z,28.92
2018-08-12T04:46:13.807Z,28.92
2018-08-12T04:47:13.774Z,28.92
2018-08-12T04:48:13.723Z,28.98
2018-08-12T04:49:13.680Z,28.95
2018-08-12T04:50:13.636Z,28.95
2018-08-12T04:51:13.594Z,29.04
2018-08-12T04:52:13.551Z,29.02
2018-08-12T04:53:13.509Z,29.00
2018-08-12T04:54:13.468Z,28.92
2018-08-12T04:55:13.423Z,28.95
2018-08-12T04:56:13.380Z,28.98
2018-08-12T04:57:13.338Z,28.96
2018-08-12T04:58:13.295Z,28.96
2018-08-12T04:59:13.252Z,29.09
2018-08-12T05:00:13.210Z,29.09
2018-08-12T05:01:13.168Z,28.98
2018-08-12T05:02:13.124Z,29.02
2018-08-12T05:03:13.081Z,29.00
2018-08-12T05:04:13.039Z,29.02
2018-08-12T05:05:12.996Z,29.05
2018-08-12T05:06:12.955Z,29.04
2018-08-12T05:07:12.911Z,29.06
2018-08-12T05:08:12.871Z,29.08
2018-08-12T05:09:12.825Z,29.09
2018-08-12T05:10:12.782Z,29.05
2018-08-12T05:11:12.740Z,29.08
2018-08-12T05:12:12.697Z,29.11
2018-08-12T05:13:12.654Z,29.08
2018-08-12T05:14:12.611Z,29.16
2018-08-12T05:15:12.569Z,29.11
2018-08-12T05:16:12.526Z,29.15
2018-08-12T05:17:12.484Z,29.18
2018-08-12T05:18:12.440Z,29.18
2018-08-12T05:19:12.398Z,29.15
2018-08-12T05:20:12.355Z,29.15
2018-08-12T05:21:12.313Z,29.24
2018-08-12T05:22:12.271Z,29.26
2018-08-12T05:23:12.227Z,29.36
2018-08-12T05:24:12.193Z,29.33
2018-08-12T05:25:12.142Z,29.30
2018-08-12T05:26:12.098Z,29.33
2018-08-12T05:27:12.056Z,29.30
2018-08-12T05:28:12.014Z,29.31
2018-08-12T05:29:11.971Z,29.33
2018-08-12T05:30:11.927Z,29.24
2018-08-12T05:31:11.885Z,29.36
2018-08-12T05:32:11.842Z,29.34
2018-08-12T05:33:11.800Z,29.34
2018-08-12T05:34:11.757Z,29.37
2018-08-12T05:35:11.714Z,29.41
2018-08-12T05:36:11.795Z,29.51
2018-08-12T05:37:11.629Z,29.57
2018-08-12T05:38:11.589Z,29.60
2018-08-12T05:39:11.543Z,29.65
2018-08-12T05:40:11.501Z,29.68
2018-08-12T05:41:11.458Z,29.82
2018-08-12T05:42:11.420Z,29.92
2018-08-12T05:43:11.372Z,30.00
2018-08-12T05:44:11.332Z,30.01
2018-08-12T05:45:11.293Z,30.13
2018-08-12T05:46:11.244Z,30.17
2018-08-12T05:47:11.202Z,30.17
2018-08-12T05:48:11.160Z,30.26
2018-08-12T05:49:11.117Z,30.37
2018-08-12T05:50:11.079Z,30.37
2018-08-12T05:51:11.102Z,30.47
2018-08-12T05:52:10.989Z,30.55
2018-08-12T05:53:10.948Z,30.65
2018-08-12T05:54:10.905Z,30.61
2018-08-12T05:55:10.861Z,30.58
2018-08-12T05:56:10.819Z,30.67
2018-08-12T05:57:10.804Z,30.69
2018-08-12T05:58:10.733Z,30.73
2018-08-12T05:59:10.691Z,30.76
2018-08-12T06:00:10.650Z,30.80
2018-08-12T06:01:10.606Z,30.79
2018-08-12T06:02:10.563Z,30.88
2018-08-12T06:03:10.521Z,30.99
2018-08-12T06:04:10.479Z,31.02
2018-08-12T06:05:10.438Z,31.01
2018-08-12T06:06:10.393Z,31.07
2018-08-12T06:07:10.351Z,31.07
2018-08-12T06:08:10.313Z,31.16
2018-08-12T06:09:10.267Z,31.16
2018-08-12T06:10:10.224Z,31.20
2018-08-12T06:11:10.182Z,31.21
2018-08-12T06:12:10.139Z,31.26
2018-08-12T06:13:10.097Z,31.28
2018-08-12T06:14:10.055Z,31.35
2018-08-12T06:15:10.015Z,31.38
2018-08-12T06:16:09.970Z,31.50
2018-08-12T06:17:09.928Z,31.57
2018-08-12T06:18:09.885Z,31.54
2018-08-12T06:19:09.842Z,31.62
2018-08-12T06:20:09.803Z,31.73
2018-08-12T06:21:09.795Z,31.78
2018-08-12T06:22:09.719Z,31.80
2018-08-12T06:23:09.676Z,31.78
2018-08-12T06:24:09.632Z,31.84
2018-08-12T06:25:09.590Z,31.85
2018-08-12T06:26:09.547Z,31.78
2018-08-12T06:27:09.505Z,31.92
2018-08-12T06:28:09.463Z,32.00
2018-08-12T06:29:09.421Z,31.96
2018-08-12T06:30:09.378Z,31.93
2018-08-12T06:31:09.336Z,32.00
2018-08-12T06:32:09.296Z,32.04
2018-08-12T06:33:09.252Z,32.04
2018-08-12T06:34:09.212Z,32.22
2018-08-12T06:35:09.168Z,32.26
2018-08-12T06:36:09.127Z,32.18
2018-08-12T06:37:09.086Z,32.28
2018-08-12T06:38:09.042Z,32.30
2018-08-12T06:39:08.999Z,32.33
2018-08-12T06:40:08.957Z,32.47
2018-08-12T06:41:08.915Z,32.47
2018-08-12T06:42:08.872Z,32.45
2018-08-12T06:43:08.830Z,32.52
2018-08-12T06:44:08.788Z,32.56
2018-08-12T06:45:08.747Z,32.65
2018-08-12T06:46:08.704Z,32.63
2018-08-12T06:47:08.662Z,32.77
2018-08-12T06:48:08.620Z,32.72
2018-08-12T06:49:08.578Z,32.82
2018-08-12T06:50:08.539Z,32.94
2018-08-12T06:51:08.493Z,32.92
2018-08-12T06:52:08.453Z,33.01
2018-08-12T06:53:08.410Z,33.06
2018-08-12T06:54:08.368Z,33.21
2018-08-12T06:55:08.326Z,33.26
2018-08-12T06:56:08.284Z,33.34
2018-08-12T06:57:08.242Z,33.49
2018-08-12T06:58:08.253Z,33.49
2018-08-12T06:59:08.158Z,33.61
2018-08-12T07:00:08.116Z,33.69
2018-08-12T07:01:08.075Z,33.86
2018-08-12T07:02:08.034Z,33.95
2018-08-12T07:03:07.989Z,34.05
2018-08-12T07:04:07.948Z,34.15
2018-08-12T07:05:07.906Z,34.24
2018-08-12T07:06:07.864Z,34.28
2018-08-12T07:07:07.822Z,34.44
2018-08-12T07:08:07.780Z,34.58
2018-08-12T07:09:07.738Z,34.62
2018-08-12T07:10:07.698Z,34.85
2018-08-12T07:11:07.655Z,34.99
2018-08-12T07:12:07.613Z,35.21
2018-08-12T07:13:07.571Z,35.36
2018-08-12T07:14:07.528Z,35.58
2018-08-12T07:15:07.487Z,35.75
2018-08-12T07:16:07.495Z,35.85
2018-08-12T07:17:07.404Z,36.09
2018-08-12T07:18:07.361Z,36.23
2018-08-12T07:19:07.319Z,36.50
2018-08-12T07:20:07.277Z,36.71
2018-08-12T07:21:07.236Z,36.98
2018-08-12T07:22:07.193Z,36.95
2018-08-12T07:23:07.152Z,36.90
2018-08-12T07:24:07.110Z,36.75
2018-08-12T07:25:07.069Z,36.57
2018-08-12T07:26:07.027Z,36.75
2018-08-12T07:27:06.985Z,37.00
2018-08-12T07:28:06.944Z,37.37
2018-08-12T07:29:06.912Z,37.62
2018-08-12T07:30:06.859Z,37.64
2018-08-12T07:31:07.018Z,37.93
2018-08-12T07:32:06.776Z,37.97
2018-08-12T07:33:06.735Z,38.15
2018-08-12T07:34:06.698Z,38.32
2018-08-12T07:35:06.651Z,38.52
2018-08-12T07:36:06.610Z,38.65
2018-08-12T07:37:06.568Z,38.75
2018-08-12T07:38:06.526Z,38.86
2018-08-12T07:39:06.485Z,38.96
2018-08-12T07:40:06.443Z,39.07
2018-08-12T07:41:06.402Z,39.17
2018-08-12T07:42:06.359Z,39.33
2018-08-12T07:43:06.319Z,39.47
2018-08-12T07:44:06.277Z,39.55
2018-08-12T07:45:06.236Z,39.63
2018-08-12T07:46:06.194Z,39.73
2018-08-12T07:47:06.153Z,39.89
2018-08-12T07:48:06.112Z,40.00
2018-08-12T07:49:06.071Z,39.96
2018-08-12T07:50:06.028Z,40.18
2018-08-12T07:51:05.994Z,40.32
2018-08-12T07:52:05.950Z,40.39
2018-08-12T07:53:05.905Z,40.43
2018-08-12T07:54:05.863Z,40.54
2018-08-12T07:55:05.822Z,40.67
2018-08-12T07:56:05.782Z,40.70
2018-08-12T07:57:05.740Z,40.84
2018-08-12T07:58:05.700Z,40.92
2018-08-12T07:59:05.660Z,41.08
2018-08-12T08:00:05.618Z,41.14
2018-08-12T08:01:05.577Z,41.26
2018-08-12T08:02:05.542Z,41.33
2018-08-12T08:03:05.494Z,41.41
2018-08-12T08:04:05.457Z,41.51
2018-08-12T08:05:05.412Z,41.60
2018-08-12T08:06:05.416Z,41.69
2018-08-12T08:07:05.331Z,41.84
2018-08-12T08:08:05.290Z,41.96
2018-08-12T08:09:05.249Z,42.05
2018-08-12T08:10:05.209Z,42.08
2018-08-12T08:11:05.168Z,42.12
2018-08-12T08:12:05.128Z,42.23
2018-08-12T08:13:05.094Z,42.27
2018-08-12T08:14:05.047Z,42.25
2018-08-12T08:15:05.007Z,42.40
2018-08-12T08:16:04.970Z,42.47
2018-08-12T08:17:04.926Z,42.61
2018-08-12T08:18:04.885Z,42.50
2018-08-12T08:19:04.845Z,42.49
2018-08-12T08:20:04.805Z,42.55
2018-08-12T08:21:04.767Z,42.55
2018-08-12T08:22:04.724Z,42.47
2018-08-12T08:23:04.687Z,42.62
2018-08-12T08:24:04.645Z,42.50
2018-08-12T08:25:04.605Z,42.36
2018-08-12T08:26:04.565Z,42.36
2018-08-12T08:27:04.526Z,42.23
2018-08-12T08:28:04.486Z,42.20
2018-08-12T08:29:04.446Z,42.16
2018-08-12T08:30:04.406Z,42.25
2018-08-12T08:31:04.367Z,42.18
2018-08-12T08:32:04.504Z,42.24
2018-08-12T08:33:04.288Z,42.23
2018-08-12T08:34:04.248Z,42.20
2018-08-12T08:35:04.208Z,42.28
2018-08-12T08:36:04.169Z,42.17
2018-08-12T08:37:04.129Z,42.25
2018-08-12T08:38:04.146Z,42.21
2018-08-12T08:39:04.052Z,42.28
2018-08-12T08:40:04.013Z,42.21
2018-08-12T08:41:03.975Z,42.18
2018-08-12T08:42:03.934Z,42.02
2018-08-12T08:43:03.895Z,42.02
2018-08-12T08:44:03.889Z,42.06
2018-08-12T08:45:03.818Z,41.99
2018-08-12T08:46:03.779Z,41.99
2018-08-12T08:47:03.755Z,42.05
2018-08-12T08:48:03.701Z,42.06
2018-08-12T08:49:03.663Z,42.11
2018-08-12T08:50:03.756Z,42.08
2018-08-12T08:51:03.586Z,41.96
2018-08-12T08:52:03.547Z,41.98
2018-08-12T08:53:03.509Z,41.66
2018-08-12T08:54:03.469Z,41.41
2018-08-12T08:55:03.431Z,41.35
2018-08-12T08:56:03.430Z,41.33
2018-08-12T08:57:03.355Z,41.35
2018-08-12T08:58:03.316Z,41.48
2018-08-12T08:59:03.277Z,41.51
2018-08-12T09:00:03.245Z,41.51
2018-08-12T09:01:03.202Z,41.48
2018-08-12T09:02:03.163Z,41.47
2018-08-12T09:03:03.125Z,41.41
2018-08-12T09:04:03.089Z,41.32
2018-08-12T09:05:03.053Z,41.36
2018-08-12T09:06:03.010Z,41.36
2018-08-12T09:07:02.973Z,41.32
2018-08-12T09:08:03.030Z,41.33
2018-08-12T09:09:03.152Z,41.36
2018-08-12T09:10:02.858Z,41.25
2018-08-12T09:11:02.821Z,41.14
2018-08-12T09:12:02.783Z,41.14
2018-08-12T09:13:02.745Z,40.94
2018-08-12T09:14:02.707Z,40.91
2018-08-12T09:15:02.672Z,40.87
2018-08-12T09:16:02.634Z,40.80
2018-08-12T09:17:02.594Z,40.79
2018-08-12T09:18:02.566Z,40.65
2018-08-12T09:19:02.519Z,40.64
2018-08-12T09:20:02.483Z,40.54
2018-08-12T09:21:02.444Z,40.32
2018-08-12T09:22:02.405Z,40.12
2018-08-12T09:23:02.368Z,39.86
2018-08-12T09:24:02.402Z,39.52
2018-08-12T09:25:02.294Z,39.18
2018-08-12T09:26:02.255Z,38.93
2018-08-12T09:27:02.217Z,38.74
2018-08-12T09:28:02.186Z,38.54
2018-08-12T09:29:02.143Z,38.32
2018-08-12T09:30:02.133Z,38.04
2018-08-12T09:31:02.066Z,37.84
2018-08-12T09:32:02.029Z,37.46
2018-08-12T09:33:01.991Z,36.99
2018-08-12T09:34:01.953Z,36.68
2018-08-12T09:35:01.915Z,36.37
2018-08-12T09:36:01.878Z,36.01
2018-08-12T09:37:01.843Z,35.75
2018-08-12T09:38:01.802Z,35.55
2018-08-12T09:39:01.764Z,35.29
2018-08-12T09:40:01.726Z,35.06
2018-08-12T09:41:01.690Z,34.97
2018-08-12T09:42:01.650Z,34.66
2018-08-12T09:43:01.616Z,34.56
2018-08-12T09:44:01.574Z,34.39
2018-08-12T09:45:01.537Z,34.25
2018-08-12T09:46:01.498Z,34.06
2018-08-12T09:47:01.459Z,34.03
2018-08-12T09:48:01.422Z,34.06
2018-08-12T09:49:01.384Z,33.91
2018-08-12T09:50:01.345Z,33.78
2018-08-12T09:51:01.307Z,33.65
2018-08-12T09:52:01.268Z,33.59
2018-08-12T09:53:01.229Z,33.54
2018-08-12T09:54:01.190Z,33.51
2018-08-12T09:55:01.155Z,33.32
2018-08-12T09:56:01.113Z,33.26
2018-08-12T09:57:01.080Z,33.26
2018-08-12T09:58:01.034Z,33.21
2018-08-12T09:59:00.995Z,33.15
2018-08-12T10:00:00.957Z,33.04
2018-08-12T10:01:00.920Z,32.99
2018-08-12T10:02:00.878Z,32.96
2018-08-12T10:03:00.839Z,32.85
2018-08-12T10:04:00.800Z,32.81
2018-08-12T10:05:00.761Z,32.84
2018-08-12T10:06:00.720Z,32.72
2018-08-12T10:07:00.683Z,32.65
2018-08-12T10:08:00.644Z,32.65
2018-08-12T10:09:00.603Z,32.63
2018-08-12T10:10:00.563Z,32.60
2018-08-12T10:11:00.524Z,32.65
2018-08-12T10:12:00.487Z,32.62
2018-08-12T10:13:00.447Z,32.57
2018-08-12T10:14:00.411Z,32.59
2018-08-12T10:15:00.366Z,32.51
2018-08-12T10:16:00.331Z,32.47
2018-08-12T10:17:00.289Z,32.43
2018-08-12T10:18:00.247Z,32.41
2018-08-12T10:19:00.207Z,32.33
2018-08-12T10:20:00.168Z,32.40
2018-08-12T10:21:00.130Z,32.38
2018-08-12T10:22:00.089Z,32.32
2018-08-12T10:23:00.052Z,32.38
2018-08-12T10:24:00.010Z,32.37
2018-08-12T10:24:59.969Z,32.38
2018-08-12T10:25:59.929Z,32.30
2018-08-12T10:26:59.892Z,32.30
2018-08-12T10:27:59.857Z,32.38
2018-08-12T10:28:59.811Z,32.33
2018-08-12T10:29:59.770Z,32.30
2018-08-12T10:30:59.730Z,32.26
2018-08-12T10:31:59.691Z,32.30
2018-08-12T10:32:59.660Z,32.18
2018-08-12T10:33:59.615Z,32.21
2018-08-12T10:34:59.572Z,32.25
2018-08-12T10:35:59.532Z,32.29
2018-08-12T10:36:59.493Z,32.22
2018-08-12T10:37:59.501Z,32.22
2018-08-12T10:38:59.412Z,32.21
2018-08-12T10:39:59.373Z,32.28
2018-08-12T10:40:59.333Z,32.28
2018-08-12T10:41:59.293Z,32.23
2018-08-12T10:42:59.253Z,32.26
2018-08-12T10:43:59.215Z,32.30
2018-08-12T10:44:59.175Z,32.25
2018-08-12T10:45:59.136Z,32.29
2018-08-12T10:46:59.093Z,32.25
2018-08-12T10:47:59.054Z,32.29
2018-08-12T10:48:59.014Z,32.30
2018-08-12T10:49:58.976Z,32.26
2018-08-12T10:50:58.960Z,32.33
2018-08-12T10:51:58.894Z,32.26
2018-08-12T10:52:58.855Z,32.28
2018-08-12T10:53:58.814Z,32.26
2018-08-12T10:54:58.775Z,32.29
2018-08-12T10:55:58.735Z,32.28
2018-08-12T10:56:58.695Z,32.33
2018-08-12T10:57:58.656Z,32.26
2018-08-12T10:58:58.619Z,32.30
2018-08-12T10:59:58.576Z,32.26
2018-08-12T11:00:58.536Z,32.28
2018-08-12T11:01:58.494Z,32.26
2018-08-12T11:02:58.455Z,32.28
2018-08-12T11:03:58.415Z,32.21
2018-08-12T11:04:58.375Z,32.18
2018-08-12T11:05:58.334Z,32.21
2018-08-12T11:06:58.296Z,32.19
2018-08-12T11:07:58.255Z,32.18
2018-08-12T11:08:58.216Z,32.19
2018-08-12T11:09:58.175Z,32.18
2018-08-12T11:10:58.135Z,32.21
2018-08-12T11:11:58.095Z,32.19
2018-08-12T11:12:58.057Z,32.28
2018-08-12T11:13:58.018Z,32.18
2018-08-12T11:14:57.976Z,32.14
2018-08-12T11:15:57.936Z,32.13
2018-08-12T11:16:57.896Z,32.04
2018-08-12T11:17:57.855Z,32.06
2018-08-12T11:18:57.965Z,32.07
2018-08-12T11:19:57.779Z,31.95
2018-08-12T11:20:57.737Z,32.08
2018-08-12T11:21:57.698Z,32.01
2018-08-12T11:22:57.655Z,32.07
2018-08-12T11:23:57.616Z,32.00
2018-08-12T11:24:57.576Z,31.95
2018-08-12T11:25:57.537Z,32.01
2018-08-12T11:26:57.496Z,31.99
2018-08-12T11:27:57.456Z,32.03
2018-08-12T11:28:57.419Z,31.93
2018-08-12T11:29:57.376Z,31.96
2018-08-12T11:30:57.336Z,31.96
2018-08-12T11:31:57.300Z,31.96
2018-08-12T11:32:57.256Z,31.93
2018-08-12T11:33:57.215Z,31.99
2018-08-12T11:34:57.178Z,32.04
2018-08-12T11:35:57.236Z,32.00
2018-08-12T11:36:57.096Z,32.04
2018-08-12T11:37:57.055Z,32.04
2018-08-12T11:38:57.015Z,32.06
2018-08-12T11:39:56.975Z,32.03
2018-08-12T11:40:56.937Z,32.07
2018-08-12T11:41:56.898Z,32.08
2018-08-12T11:42:56.855Z,32.10
2018-08-12T11:43:56.815Z,31.96
2018-08-12T11:44:56.775Z,31.95
2018-08-12T11:45:56.734Z,31.95
2018-08-12T11:46:56.694Z,31.96
2018-08-12T11:47:56.655Z,31.95
2018-08-12T11:48:56.615Z,32.00
2018-08-12T11:49:56.574Z,31.92
2018-08-12T11:50:56.534Z,31.86
2018-08-12T11:51:56.495Z,31.91
2018-08-12T11:52:56.454Z,31.91
2018-08-12T11:53:56.413Z,31.88
2018-08-12T11:54:56.375Z,31.84
2018-08-12T11:55:56.333Z,31.84
2018-08-12T11:56:56.337Z,31.75
2018-08-12T11:57:56.253Z,31.75
2018-08-12T11:58:56.213Z,31.81
2018-08-12T11:59:56.173Z,31.80
2018-08-12T12:00:56.133Z,31.78
2018-08-12T12:01:56.092Z,31.75
2018-08-12T12:02:56.053Z,31.80
2018-08-12T12:03:56.012Z,31.72
2018-08-12T12:04:55.972Z,31.73
2018-08-12T12:05:55.932Z,31.72
2018-08-12T12:06:55.892Z,31.72
2018-08-12T12:07:55.855Z,31.68
2018-08-12T12:08:55.811Z,31.65
2018-08-12T12:09:55.770Z,31.72
2018-08-12T12:10:55.735Z,31.66
2018-08-12T12:11:55.691Z,31.69
2018-08-12T12:12:55.650Z,31.70
2018-08-12T12:13:55.613Z,31.58
2018-08-12T12:14:55.573Z,31.68
2018-08-12T12:15:55.529Z,31.61
2018-08-12T12:16:55.491Z,31.63
2018-08-12T12:17:55.448Z,31.62
2018-08-12T12:18:55.409Z,31.62
2018-08-12T12:19:55.369Z,31.61
2018-08-12T12:20:55.333Z,31.56
2018-08-12T12:21:55.288Z,31.62
2018-08-12T12:22:55.248Z,31.54
2018-08-12T12:23:55.210Z,31.54
2018-08-12T12:24:55.168Z,31.56
2018-08-12T12:25:55.131Z,31.56
2018-08-12T12:26:55.089Z,31.56
2018-08-12T12:27:55.046Z,31.54
2018-08-12T12:28:55.007Z,31.54
2018-08-12T12:29:54.965Z,31.56
2018-08-12T12:30:54.925Z,31.54
2018-08-12T12:31:54.885Z,31.53
2018-08-12T12:32:54.845Z,31.50
2018-08-12T12:33:54.806Z,31.53
2018-08-12T12:34:54.764Z,31.54
2018-08-12T12:35:54.729Z,31.54
2018-08-12T12:36:54.684Z,31.53
2018-08-12T12:37:54.643Z,31.54
2018-08-12T12:38:54.603Z,31.54
2018-08-12T12:39:54.562Z,31.61
2018-08-12T12:40:54.523Z,31.48
2018-08-12T12:41:54.484Z,31.50
2018-08-12T12:42:54.462Z,31.48
2018-08-12T12:43:54.402Z,31.43
2018-08-12T12:44:54.362Z,31.48
2018-08-12T12:45:54.321Z,31.47
2018-08-12T12:46:54.280Z,31.44
2018-08-12T12:47:54.240Z,31.46
2018-08-12T12:48:54.200Z,31.46
2018-08-12T12:49:54.159Z,31.46
2018-08-12T12:50:54.119Z,31.46
2018-08-12T12:51:54.079Z,31.46